sensor_id;sensor_type;location;lat;lon;timestamp;temperature;humidity
16635;DHT22;8431;52.458;9.998;2022-10-16T00:01:08;12.20;99.90
16635;DHT22;8431;52.458;9.998;2022-10-16T00:03:37;12.10;99.90
16635;DHT22;8431;52.458;9.998;2022-10-16T00:06:04;12.10;99.90
16635;DHT22;8431;52.458;9.998;2022-10-16T00:08:32;12.10;99.90
16635;DHT22;8431;52.458;9.998;2022-10-16T00:11:02;12.00;99.90
16635;DHT22;8431;52.458;9.998;2022-10-16T00:13:30;12.00;99.90
16635;DHT22;8431;52.458;9.998;2022-10-16T00:15:58;12.00;99.90
16635;DHT22;8431;52.458;9.998;2022-10-16T00:18:26;11.90;99.90
16635;DHT22;8431;52.458;9.998;2022-10-16T00:20:53;11.90;99.90
16635;DHT22;8431;52.458;9.998;2022-10-16T00:23:21;11.90;99.90
16635;DHT22;8431;52.458;9.998;2022-10-16T00:25:55;11.90;99.90
16635;DHT22;8431;52.458;9.998;2022-10-16T00:28:24;11.90;99.90
16635;DHT22;8431;52.458;9.998;2022-10-16T00:30:51;11.90;99.90
16635;DHT22;8431;52.458;9.998;2022-10-16T00:33:18;11.90;99.90
16635;DHT22;8431;52.458;9.998;2022-10-16T00:35:45;11.90;99.90
16635;DHT22;8431;52.458;9.998;2022-10-16T00:38:13;11.90;99.90
16635;DHT22;8431;52.458;9.998;2022-10-16T00:40:40;11.90;99.90
16635;DHT22;8431;52.458;9.998;2022-10-16T00:43:13;11.80;99.90
16635;DHT22;8431;52.458;9.998;2022-10-16T00:45:41;11.80;99.90
16635;DHT22;8431;52.458;9.998;2022-10-16T00:48:12;11.80;99.90
16635;DHT22;8431;52.458;9.998;2022-10-16T00:50:41;11.70;99.90
16635;DHT22;8431;52.458;9.998;2022-10-16T00:53:10;11.70;99.90
16635;DHT22;8431;52.458;9.998;2022-10-16T00:55:38;11.70;99.90
16635;DHT22;8431;52.458;9.998;2022-10-16T00:58:05;11.70;99.90
16635;DHT22;8431;52.458;9.998;2022-10-16T01:00:33;11.70;99.90
16635;DHT22;8431;52.458;9.998;2022-10-16T01:03:02;11.70;99.90
16635;DHT22;8431;52.458;9.998;2022-10-16T01:05:33;11.70;99.90
16635;DHT22;8431;52.458;9.998;2022-10-16T01:08:09;11.70;99.90
16635;DHT22;8431;52.458;9.998;2022-10-16T01:10:43;11.80;99.90
16635;DHT22;8431;52.458;9.998;2022-10-16T01:13:14;11.80;99.90
16635;DHT22;8431;52.458;9.998;2022-10-16T01:15:48;11.80;99.90
16635;DHT22;8431;52.458;9.998;2022-10-16T01:18:23;11.80;99.90
16635;DHT22;8431;52.458;9.998;2022-10-16T01:20:56;11.90;99.90
16635;DHT22;8431;52.458;9.998;2022-10-16T01:23:36;11.90;99.90
16635;DHT22;8431;52.458;9.998;2022-10-16T01:26:28;11.90;99.90
16635;DHT22;8431;52.458;9.998;2022-10-16T01:29:03;11.90;99.90
16635;DHT22;8431;52.458;9.998;2022-10-16T01:31:34;11.90;99.90
16635;DHT22;8431;52.458;9.998;2022-10-16T01:34:05;11.90;99.90
16635;DHT22;8431;52.458;9.998;2022-10-16T01:36:38;11.90;99.90
16635;DHT22;8431;52.458;9.998;2022-10-16T01:39:08;11.80;99.90
16635;DHT22;8431;52.458;9.998;2022-10-16T01:41:39;11.80;99.90
16635;DHT22;8431;52.458;9.998;2022-10-16T01:44:11;11.70;99.90
16635;DHT22;8431;52.458;9.998;2022-10-16T01:46:42;11.70;99.90
16635;DHT22;8431;52.458;9.998;2022-10-16T01:49:10;11.60;99.90
16635;DHT22;8431;52.458;9.998;2022-10-16T01:51:39;11.50;99.90
16635;DHT22;8431;52.458;9.998;2022-10-16T01:54:08;11.50;99.90
16635;DHT22;8431;52.458;9.998;2022-10-16T01:56:36;11.40;99.90
16635;DHT22;8431;52.458;9.998;2022-10-16T01:59:09;11.40;99.90
16635;DHT22;8431;52.458;9.998;2022-10-16T02:01:39;11.30;99.90
16635;DHT22;8431;52.458;9.998;2022-10-16T02:04:11;11.30;99.90
16635;DHT22;8431;52.458;9.998;2022-10-16T02:06:40;11.30;99.90
16635;DHT22;8431;52.458;9.998;2022-10-16T02:09:07;11.30;99.90
16635;DHT22;8431;52.458;9.998;2022-10-16T02:11:34;11.30;99.90
16635;DHT22;8431;52.458;9.998;2022-10-16T02:14:04;11.40;99.90
16635;DHT22;8431;52.458;9.998;2022-10-16T02:16:35;11.40;99.90
16635;DHT22;8431;52.458;9.998;2022-10-16T02:19:03;11.40;99.90
16635;DHT22;8431;52.458;9.998;2022-10-16T02:21:38;11.40;99.90
16635;DHT22;8431;52.458;9.998;2022-10-16T02:24:10;11.40;99.90
16635;DHT22;8431;52.458;9.998;2022-10-16T02:26:42;11.40;99.90
16635;DHT22;8431;52.458;9.998;2022-10-16T02:29:15;11.50;99.90
16635;DHT22;8431;52.458;9.998;2022-10-16T02:31:48;11.50;99.90
16635;DHT22;8431;52.458;9.998;2022-10-16T02:34:17;11.40;99.90
16635;DHT22;8431;52.458;9.998;2022-10-16T02:36:46;11.40;99.90
16635;DHT22;8431;52.458;9.998;2022-10-16T02:39:14;11.50;99.90
16635;DHT22;8431;52.458;9.998;2022-10-16T02:41:41;11.50;99.90
16635;DHT22;8431;52.458;9.998;2022-10-16T02:44:09;11.50;99.90
16635;DHT22;8431;52.458;9.998;2022-10-16T02:46:36;11.50;99.90
16635;DHT22;8431;52.458;9.998;2022-10-16T02:49:04;11.50;99.90
16635;DHT22;8431;52.458;9.998;2022-10-16T02:51:31;11.50;99.90
16635;DHT22;8431;52.458;9.998;2022-10-16T02:53:58;11.40;99.90
16635;DHT22;8431;52.458;9.998;2022-10-16T02:56:25;11.40;99.90
16635;DHT22;8431;52.458;9.998;2022-10-16T02:58:53;11.30;99.90
16635;DHT22;8431;52.458;9.998;2022-10-16T03:01:20;11.30;99.90
16635;DHT22;8431;52.458;9.998;2022-10-16T03:03:47;11.40;99.90
16635;DHT22;8431;52.458;9.998;2022-10-16T03:06:15;11.40;99.90
16635;DHT22;8431;52.458;9.998;2022-10-16T03:08:42;11.40;99.90
16635;DHT22;8431;52.458;9.998;2022-10-16T03:11:09;11.40;99.90
16635;DHT22;8431;52.458;9.998;2022-10-16T03:13:36;11.40;99.90
16635;DHT22;8431;52.458;9.998;2022-10-16T03:16:03;11.40;99.90
16635;DHT22;8431;52.458;9.998;2022-10-16T03:18:30;11.40;99.90
16635;DHT22;8431;52.458;9.998;2022-10-16T03:20:57;11.40;99.90
16635;DHT22;8431;52.458;9.998;2022-10-16T03:23:26;11.40;99.90
16635;DHT22;8431;52.458;9.998;2022-10-16T03:25:53;11.40;99.90
16635;DHT22;8431;52.458;9.998;2022-10-16T03:28:20;11.30;99.90
16635;DHT22;8431;52.458;9.998;2022-10-16T03:30:47;11.30;99.90
16635;DHT22;8431;52.458;9.998;2022-10-16T03:33:14;11.30;99.90
16635;DHT22;8431;52.458;9.998;2022-10-16T03:35:41;11.30;99.90
16635;DHT22;8431;52.458;9.998;2022-10-16T03:38:08;11.30;99.90
16635;DHT22;8431;52.458;9.998;2022-10-16T03:40:37;11.30;99.90
16635;DHT22;8431;52.458;9.998;2022-10-16T03:43:04;11.30;99.90
16635;DHT22;8431;52.458;9.998;2022-10-16T03:45:31;11.20;99.90
16635;DHT22;8431;52.458;9.998;2022-10-16T03:47:58;11.20;99.90
16635;DHT22;8431;52.458;9.998;2022-10-16T03:50:25;11.20;99.90
16635;DHT22;8431;52.458;9.998;2022-10-16T03:52:52;11.10;99.90
16635;DHT22;8431;52.458;9.998;2022-10-16T03:55:18;11.10;99.90
16635;DHT22;8431;52.458;9.998;2022-10-16T03:57:47;11.00;99.90
16635;DHT22;8431;52.458;9.998;2022-10-16T04:00:14;11.00;99.90
16635;DHT22;8431;52.458;9.998;2022-10-16T04:02:41;10.90;99.90
16635;DHT22;8431;52.458;9.998;2022-10-16T04:05:08;10.80;99.90
16635;DHT22;8431;52.458;9.998;2022-10-16T04:07:35;10.80;99.90
16635;DHT22;8431;52.458;9.998;2022-10-16T04:10:04;10.70;99.90
16635;DHT22;8431;52.458;9.998;2022-10-16T04:12:31;10.60;99.90
16635;DHT22;8431;52.458;9.998;2022-10-16T04:14:59;10.60;99.90
16635;DHT22;8431;52.458;9.998;2022-10-16T04:17:26;10.50;99.90
16635;DHT22;8431;52.458;9.998;2022-10-16T04:19:53;10.40;99.90
16635;DHT22;8431;52.458;9.998;2022-10-16T04:22:21;10.40;99.90
16635;DHT22;8431;52.458;9.998;2022-10-16T04:24:48;10.40;99.90
16635;DHT22;8431;52.458;9.998;2022-10-16T04:27:15;10.40;99.90
16635;DHT22;8431;52.458;9.998;2022-10-16T04:29:42;10.50;99.90
16635;DHT22;8431;52.458;9.998;2022-10-16T04:32:10;10.50;99.90
16635;DHT22;8431;52.458;9.998;2022-10-16T04:34:39;10.50;99.90
16635;DHT22;8431;52.458;9.998;2022-10-16T04:37:06;10.50;99.90
16635;DHT22;8431;52.458;9.998;2022-10-16T04:39:33;10.40;99.90
16635;DHT22;8431;52.458;9.998;2022-10-16T04:42:00;10.40;99.90
16635;DHT22;8431;52.458;9.998;2022-10-16T04:44:28;10.40;99.90
16635;DHT22;8431;52.458;9.998;2022-10-16T04:46:54;10.40;99.90
16635;DHT22;8431;52.458;9.998;2022-10-16T04:49:23;10.40;99.90
16635;DHT22;8431;52.458;9.998;2022-10-16T04:51:50;10.40;99.90
16635;DHT22;8431;52.458;9.998;2022-10-16T04:54:17;10.40;99.90
16635;DHT22;8431;52.458;9.998;2022-10-16T04:56:46;10.40;99.90
16635;DHT22;8431;52.458;9.998;2022-10-16T04:59:14;10.40;99.90
16635;DHT22;8431;52.458;9.998;2022-10-16T05:01:41;10.40;99.90
16635;DHT22;8431;52.458;9.998;2022-10-16T05:04:08;10.40;99.90
16635;DHT22;8431;52.458;9.998;2022-10-16T05:06:37;10.40;99.90
16635;DHT22;8431;52.458;9.998;2022-10-16T05:09:05;10.50;99.90
16635;DHT22;8431;52.458;9.998;2022-10-16T05:11:32;10.60;99.90
16635;DHT22;8431;52.458;9.998;2022-10-16T05:13:59;10.60;99.90
16635;DHT22;8431;52.458;9.998;2022-10-16T05:16:26;10.70;99.90
16635;DHT22;8431;52.458;9.998;2022-10-16T05:18:53;10.70;99.90
16635;DHT22;8431;52.458;9.998;2022-10-16T05:21:20;10.80;99.90
16635;DHT22;8431;52.458;9.998;2022-10-16T05:23:49;10.90;99.90
16635;DHT22;8431;52.458;9.998;2022-10-16T05:26:16;11.00;99.90
16635;DHT22;8431;52.458;9.998;2022-10-16T05:28:43;11.10;99.90
16635;DHT22;8431;52.458;9.998;2022-10-16T05:31:10;11.10;99.90
16635;DHT22;8431;52.458;9.998;2022-10-16T05:33:37;11.10;99.90
16635;DHT22;8431;52.458;9.998;2022-10-16T05:36:06;11.10;99.90
16635;DHT22;8431;52.458;9.998;2022-10-16T05:38:33;11.10;99.90
16635;DHT22;8431;52.458;9.998;2022-10-16T05:41:02;11.10;99.90
16635;DHT22;8431;52.458;9.998;2022-10-16T05:43:30;11.10;99.90
16635;DHT22;8431;52.458;9.998;2022-10-16T05:46:00;11.10;99.90
16635;DHT22;8431;52.458;9.998;2022-10-16T05:48:28;11.10;99.90
16635;DHT22;8431;52.458;9.998;2022-10-16T05:51:00;11.10;99.90
16635;DHT22;8431;52.458;9.998;2022-10-16T05:53:28;11.00;99.90
16635;DHT22;8431;52.458;9.998;2022-10-16T05:55:55;10.80;99.90
16635;DHT22;8431;52.458;9.998;2022-10-16T05:58:24;10.80;99.90
16635;DHT22;8431;52.458;9.998;2022-10-16T06:00:55;10.70;99.90
16635;DHT22;8431;52.458;9.998;2022-10-16T06:03:23;10.70;99.90
16635;DHT22;8431;52.458;9.998;2022-10-16T06:05:50;10.60;99.90
16635;DHT22;8431;52.458;9.998;2022-10-16T06:08:18;10.60;99.90
16635;DHT22;8431;52.458;9.998;2022-10-16T06:10:45;10.60;99.90
16635;DHT22;8431;52.458;9.998;2022-10-16T06:13:13;10.70;99.90
16635;DHT22;8431;52.458;9.998;2022-10-16T06:15:42;10.70;99.90
16635;DHT22;8431;52.458;9.998;2022-10-16T06:18:10;10.70;99.90
16635;DHT22;8431;52.458;9.998;2022-10-16T06:20:37;10.70;99.90
16635;DHT22;8431;52.458;9.998;2022-10-16T06:23:04;10.80;99.90
16635;DHT22;8431;52.458;9.998;2022-10-16T06:25:31;10.80;99.90
16635;DHT22;8431;52.458;9.998;2022-10-16T06:27:58;10.90;99.90
16635;DHT22;8431;52.458;9.998;2022-10-16T06:30:25;11.00;99.90
16635;DHT22;8431;52.458;9.998;2022-10-16T06:32:53;11.10;99.90
16635;DHT22;8431;52.458;9.998;2022-10-16T06:35:21;11.20;99.90
16635;DHT22;8431;52.458;9.998;2022-10-16T06:37:47;11.40;99.90
16635;DHT22;8431;52.458;9.998;2022-10-16T06:40:15;11.50;99.90
16635;DHT22;8431;52.458;9.998;2022-10-16T06:42:42;11.70;99.90
16635;DHT22;8431;52.458;9.998;2022-10-16T06:45:09;11.90;99.90
16635;DHT22;8431;52.458;9.998;2022-10-16T06:47:36;12.00;99.90
16635;DHT22;8431;52.458;9.998;2022-10-16T06:50:06;12.10;99.90
16635;DHT22;8431;52.458;9.998;2022-10-16T06:52:34;12.30;99.90
16635;DHT22;8431;52.458;9.998;2022-10-16T06:55:01;12.40;99.90
16635;DHT22;8431;52.458;9.998;2022-10-16T06:57:28;12.50;99.90
16635;DHT22;8431;52.458;9.998;2022-10-16T06:59:55;12.60;99.90
16635;DHT22;8431;52.458;9.998;2022-10-16T07:02:22;12.80;99.90
16635;DHT22;8431;52.458;9.998;2022-10-16T07:04:49;13.00;99.90
16635;DHT22;8431;52.458;9.998;2022-10-16T07:07:18;13.10;99.90
16635;DHT22;8431;52.458;9.998;2022-10-16T07:09:45;13.30;99.90
16635;DHT22;8431;52.458;9.998;2022-10-16T07:12:12;13.40;99.90
16635;DHT22;8431;52.458;9.998;2022-10-16T07:14:39;13.60;99.90
16635;DHT22;8431;52.458;9.998;2022-10-16T07:17:06;13.70;99.90
16635;DHT22;8431;52.458;9.998;2022-10-16T07:19:33;13.90;99.90
16635;DHT22;8431;52.458;9.998;2022-10-16T07:22:00;14.00;99.90
16635;DHT22;8431;52.458;9.998;2022-10-16T07:24:28;14.10;99.90
16635;DHT22;8431;52.458;9.998;2022-10-16T07:26:55;14.20;99.90
16635;DHT22;8431;52.458;9.998;2022-10-16T07:29:23;14.20;99.90
16635;DHT22;8431;52.458;9.998;2022-10-16T07:31:50;14.20;99.90
16635;DHT22;8431;52.458;9.998;2022-10-16T07:34:18;14.20;99.90
16635;DHT22;8431;52.458;9.998;2022-10-16T07:36:48;14.10;99.90
16635;DHT22;8431;52.458;9.998;2022-10-16T07:39:16;14.20;99.90
16635;DHT22;8431;52.458;9.998;2022-10-16T07:41:44;14.30;99.90
16635;DHT22;8431;52.458;9.998;2022-10-16T07:44:11;14.30;99.90
16635;DHT22;8431;52.458;9.998;2022-10-16T07:46:38;14.40;99.90
16635;DHT22;8431;52.458;9.998;2022-10-16T07:49:05;14.50;99.90
16635;DHT22;8431;52.458;9.998;2022-10-16T07:51:32;14.60;99.90
16635;DHT22;8431;52.458;9.998;2022-10-16T07:53:59;14.80;99.90
16635;DHT22;8431;52.458;9.998;2022-10-16T07:56:27;15.00;99.90
16635;DHT22;8431;52.458;9.998;2022-10-16T07:58:55;15.20;99.90
16635;DHT22;8431;52.458;9.998;2022-10-16T08:01:22;15.30;99.90
16635;DHT22;8431;52.458;9.998;2022-10-16T08:03:51;15.50;99.90
16635;DHT22;8431;52.458;9.998;2022-10-16T08:06:19;15.50;99.90
16635;DHT22;8431;52.458;9.998;2022-10-16T08:08:46;15.50;99.90
16635;DHT22;8431;52.458;9.998;2022-10-16T08:11:14;15.50;99.90
16635;DHT22;8431;52.458;9.998;2022-10-16T08:13:41;15.50;99.90
16635;DHT22;8431;52.458;9.998;2022-10-16T08:16:10;15.60;99.90
16635;DHT22;8431;52.458;9.998;2022-10-16T08:18:38;15.70;99.90
16635;DHT22;8431;52.458;9.998;2022-10-16T08:21:08;15.80;99.90
16635;DHT22;8431;52.458;9.998;2022-10-16T08:23:38;15.90;99.90
16635;DHT22;8431;52.458;9.998;2022-10-16T08:26:07;15.90;99.90
16635;DHT22;8431;52.458;9.998;2022-10-16T08:28:35;16.00;99.90
16635;DHT22;8431;52.458;9.998;2022-10-16T08:31:11;15.90;99.90
16635;DHT22;8431;52.458;9.998;2022-10-16T08:33:38;15.80;99.90
16635;DHT22;8431;52.458;9.998;2022-10-16T08:36:07;15.60;99.90
16635;DHT22;8431;52.458;9.998;2022-10-16T08:38:34;15.60;99.90
16635;DHT22;8431;52.458;9.998;2022-10-16T08:41:24;15.50;99.90
16635;DHT22;8431;52.458;9.998;2022-10-16T08:44:30;15.60;99.90
16635;DHT22;8431;52.458;9.998;2022-10-16T08:47:11;15.60;99.90
16635;DHT22;8431;52.458;9.998;2022-10-16T08:49:42;15.60;99.90
16635;DHT22;8431;52.458;9.998;2022-10-16T08:52:14;15.40;99.90
16635;DHT22;8431;52.458;9.998;2022-10-16T08:54:43;15.50;99.90
16635;DHT22;8431;52.458;9.998;2022-10-16T08:57:14;15.60;99.90
16635;DHT22;8431;52.458;9.998;2022-10-16T08:59:43;15.70;99.90
16635;DHT22;8431;52.458;9.998;2022-10-16T09:02:24;15.80;99.90
16635;DHT22;8431;52.458;9.998;2022-10-16T09:05:22;15.80;99.90
16635;DHT22;8431;52.458;9.998;2022-10-16T09:08:00;15.80;99.90
16635;DHT22;8431;52.458;9.998;2022-10-16T09:10:38;15.80;99.90
16635;DHT22;8431;52.458;9.998;2022-10-16T09:13:17;15.80;99.90
16635;DHT22;8431;52.458;9.998;2022-10-16T09:15:49;15.90;99.90
16635;DHT22;8431;52.458;9.998;2022-10-16T09:18:26;15.90;99.90
16635;DHT22;8431;52.458;9.998;2022-10-16T09:20:59;16.00;99.90
16635;DHT22;8431;52.458;9.998;2022-10-16T09:23:29;16.10;99.90
16635;DHT22;8431;52.458;9.998;2022-10-16T09:25:58;16.10;99.90
16635;DHT22;8431;52.458;9.998;2022-10-16T09:28:25;16.00;99.90
16635;DHT22;8431;52.458;9.998;2022-10-16T09:30:52;16.00;99.90
16635;DHT22;8431;52.458;9.998;2022-10-16T09:33:24;16.10;99.90
16635;DHT22;8431;52.458;9.998;2022-10-16T09:35:54;16.20;99.90
16635;DHT22;8431;52.458;9.998;2022-10-16T09:38:25;16.20;99.90
16635;DHT22;8431;52.458;9.998;2022-10-16T09:40:54;16.30;99.90
16635;DHT22;8431;52.458;9.998;2022-10-16T09:43:24;16.30;99.90
16635;DHT22;8431;52.458;9.998;2022-10-16T09:45:58;16.40;99.90
16635;DHT22;8431;52.458;9.998;2022-10-16T09:48:31;16.40;99.90
16635;DHT22;8431;52.458;9.998;2022-10-16T09:51:02;16.50;99.90
16635;DHT22;8431;52.458;9.998;2022-10-16T09:53:42;16.60;99.90
16635;DHT22;8431;52.458;9.998;2022-10-16T09:56:11;16.60;99.90
16635;DHT22;8431;52.458;9.998;2022-10-16T09:58:43;16.60;99.90
16635;DHT22;8431;52.458;9.998;2022-10-16T10:01:13;16.70;99.90
16635;DHT22;8431;52.458;9.998;2022-10-16T10:03:43;16.80;99.90
16635;DHT22;8431;52.458;9.998;2022-10-16T10:06:21;16.90;99.90
16635;DHT22;8431;52.458;9.998;2022-10-16T10:08:57;17.10;99.90
16635;DHT22;8431;52.458;9.998;2022-10-16T10:11:45;17.20;99.90
16635;DHT22;8431;52.458;9.998;2022-10-16T10:14:30;17.40;99.90
16635;DHT22;8431;52.458;9.998;2022-10-16T10:17:10;17.50;99.90
16635;DHT22;8431;52.458;9.998;2022-10-16T10:19:40;17.60;99.90
16635;DHT22;8431;52.458;9.998;2022-10-16T10:22:29;17.70;99.90
16635;DHT22;8431;52.458;9.998;2022-10-16T10:24:59;17.80;99.90
16635;DHT22;8431;52.458;9.998;2022-10-16T10:27:34;17.80;99.90
16635;DHT22;8431;52.458;9.998;2022-10-16T10:30:09;17.80;99.90
16635;DHT22;8431;52.458;9.998;2022-10-16T10:32:51;18.00;99.90
16635;DHT22;8431;52.458;9.998;2022-10-16T10:35:30;18.00;99.90
16635;DHT22;8431;52.458;9.998;2022-10-16T10:38:07;17.80;99.90
16635;DHT22;8431;52.458;9.998;2022-10-16T10:40:44;17.50;99.90
16635;DHT22;8431;52.458;9.998;2022-10-16T10:43:21;17.20;99.90
16635;DHT22;8431;52.458;9.998;2022-10-16T10:45:54;17.10;99.90
16635;DHT22;8431;52.458;9.998;2022-10-16T10:51:23;17.00;99.90
16635;DHT22;8431;52.458;9.998;2022-10-16T10:54:01;17.00;99.90
16635;DHT22;8431;52.458;9.998;2022-10-16T10:56:45;17.00;99.90
16635;DHT22;8431;52.458;9.998;2022-10-16T10:59:32;17.00;99.90
16635;DHT22;8431;52.458;9.998;2022-10-16T11:02:12;17.10;99.90
16635;DHT22;8431;52.458;9.998;2022-10-16T11:05:16;17.00;99.90
16635;DHT22;8431;52.458;9.998;2022-10-16T11:07:52;17.00;99.90
16635;DHT22;8431;52.458;9.998;2022-10-16T11:10:24;17.00;99.90
16635;DHT22;8431;52.458;9.998;2022-10-16T11:12:55;17.10;99.90
16635;DHT22;8431;52.458;9.998;2022-10-16T11:15:28;17.20;99.90
16635;DHT22;8431;52.458;9.998;2022-10-16T11:18:00;17.30;99.90
16635;DHT22;8431;52.458;9.998;2022-10-16T11:20:33;17.40;99.90
16635;DHT22;8431;52.458;9.998;2022-10-16T11:23:10;17.40;99.90
16635;DHT22;8431;52.458;9.998;2022-10-16T11:25:39;17.60;99.90
16635;DHT22;8431;52.458;9.998;2022-10-16T11:28:11;17.60;99.90
16635;DHT22;8431;52.458;9.998;2022-10-16T11:30:43;17.70;99.90
16635;DHT22;8431;52.458;9.998;2022-10-16T11:33:24;17.80;99.90
16635;DHT22;8431;52.458;9.998;2022-10-16T11:35:57;17.80;99.90
16635;DHT22;8431;52.458;9.998;2022-10-16T11:38:30;17.80;99.90
16635;DHT22;8431;52.458;9.998;2022-10-16T11:41:02;17.80;99.90
16635;DHT22;8431;52.458;9.998;2022-10-16T11:43:35;17.90;99.90
16635;DHT22;8431;52.458;9.998;2022-10-16T11:46:09;17.80;99.90
16635;DHT22;8431;52.458;9.998;2022-10-16T11:48:43;17.80;99.90
16635;DHT22;8431;52.458;9.998;2022-10-16T11:51:17;17.60;99.90
16635;DHT22;8431;52.458;9.998;2022-10-16T11:53:55;17.70;99.90
16635;DHT22;8431;52.458;9.998;2022-10-16T11:56:25;17.80;99.90
16635;DHT22;8431;52.458;9.998;2022-10-16T11:58:56;18.00;99.90
16635;DHT22;8431;52.458;9.998;2022-10-16T12:01:30;18.00;99.90
16635;DHT22;8431;52.458;9.998;2022-10-16T12:04:17;18.10;99.90
16635;DHT22;8431;52.458;9.998;2022-10-16T12:06:50;18.10;99.90
16635;DHT22;8431;52.458;9.998;2022-10-16T12:09:25;18.10;99.90
16635;DHT22;8431;52.458;9.998;2022-10-16T12:11:54;18.10;99.90
16635;DHT22;8431;52.458;9.998;2022-10-16T12:14:36;18.10;99.90
16635;DHT22;8431;52.458;9.998;2022-10-16T12:19:58;18.30;99.90
16635;DHT22;8431;52.458;9.998;2022-10-16T12:22:28;18.40;99.90
16635;DHT22;8431;52.458;9.998;2022-10-16T12:24:57;18.40;99.90
16635;DHT22;8431;52.458;9.998;2022-10-16T12:27:28;18.40;99.90
16635;DHT22;8431;52.458;9.998;2022-10-16T12:29:58;18.30;99.90
16635;DHT22;8431;52.458;9.998;2022-10-16T12:32:31;18.20;99.90
16635;DHT22;8431;52.458;9.998;2022-10-16T12:35:00;18.20;99.90
16635;DHT22;8431;52.458;9.998;2022-10-16T12:37:29;18.30;99.90
16635;DHT22;8431;52.458;9.998;2022-10-16T12:39:59;18.30;99.90
16635;DHT22;8431;52.458;9.998;2022-10-16T12:42:37;18.30;99.90
16635;DHT22;8431;52.458;9.998;2022-10-16T12:45:27;18.30;99.90
16635;DHT22;8431;52.458;9.998;2022-10-16T12:47:55;18.50;99.90
16635;DHT22;8431;52.458;9.998;2022-10-16T12:50:31;18.80;99.90
16635;DHT22;8431;52.458;9.998;2022-10-16T12:53:00;18.90;99.90
16635;DHT22;8431;52.458;9.998;2022-10-16T12:55:34;18.90;99.90
16635;DHT22;8431;52.458;9.998;2022-10-16T12:58:12;19.00;99.90
16635;DHT22;8431;52.458;9.998;2022-10-16T13:00:44;18.90;99.90
16635;DHT22;8431;52.458;9.998;2022-10-16T13:03:43;18.90;99.90
16635;DHT22;8431;52.458;9.998;2022-10-16T13:06:21;18.90;99.90
16635;DHT22;8431;52.458;9.998;2022-10-16T13:09:11;18.90;99.90
16635;DHT22;8431;52.458;9.998;2022-10-16T13:12:03;18.90;99.90
16635;DHT22;8431;52.458;9.998;2022-10-16T13:15:05;18.80;99.90
16635;DHT22;8431;52.458;9.998;2022-10-16T13:17:39;18.70;99.90
16635;DHT22;8431;52.458;9.998;2022-10-16T13:20:16;18.70;99.90
16635;DHT22;8431;52.458;9.998;2022-10-16T13:22:51;18.80;99.90
16635;DHT22;8431;52.458;9.998;2022-10-16T13:25:28;18.80;99.90
16635;DHT22;8431;52.458;9.998;2022-10-16T13:28:00;18.80;99.90
16635;DHT22;8431;52.458;9.998;2022-10-16T13:30:30;18.70;99.90
16635;DHT22;8431;52.458;9.998;2022-10-16T13:33:03;18.70;99.90
16635;DHT22;8431;52.458;9.998;2022-10-16T13:35:33;18.90;99.90
16635;DHT22;8431;52.458;9.998;2022-10-16T13:38:12;18.90;99.90
16635;DHT22;8431;52.458;9.998;2022-10-16T13:40:51;18.90;99.90
16635;DHT22;8431;52.458;9.998;2022-10-16T13:43:23;18.90;99.90
16635;DHT22;8431;52.458;9.998;2022-10-16T13:45:56;18.80;99.90
16635;DHT22;8431;52.458;9.998;2022-10-16T13:48:24;18.70;99.90
16635;DHT22;8431;52.458;9.998;2022-10-16T13:51:06;18.60;99.90
16635;DHT22;8431;52.458;9.998;2022-10-16T13:53:34;18.40;99.90
16635;DHT22;8431;52.458;9.998;2022-10-16T13:56:06;18.20;99.90
16635;DHT22;8431;52.458;9.998;2022-10-16T13:58:35;18.00;99.90
16635;DHT22;8431;52.458;9.998;2022-10-16T14:01:15;18.00;99.90
16635;DHT22;8431;52.458;9.998;2022-10-16T14:03:44;17.90;99.90
16635;DHT22;8431;52.458;9.998;2022-10-16T14:06:13;17.90;99.90
16635;DHT22;8431;52.458;9.998;2022-10-16T14:08:43;18.00;99.90
16635;DHT22;8431;52.458;9.998;2022-10-16T14:11:11;17.90;99.90
16635;DHT22;8431;52.458;9.998;2022-10-16T14:13:44;17.90;99.90
16635;DHT22;8431;52.458;9.998;2022-10-16T14:16:17;17.70;99.90
16635;DHT22;8431;52.458;9.998;2022-10-16T14:18:54;17.90;99.90
16635;DHT22;8431;52.458;9.998;2022-10-16T14:21:22;17.80;99.90
16635;DHT22;8431;52.458;9.998;2022-10-16T14:23:50;17.90;99.90
16635;DHT22;8431;52.458;9.998;2022-10-16T14:26:19;17.80;99.90
16635;DHT22;8431;52.458;9.998;2022-10-16T14:28:49;17.70;99.90
16635;DHT22;8431;52.458;9.998;2022-10-16T14:31:28;17.80;99.90
16635;DHT22;8431;52.458;9.998;2022-10-16T14:33:55;17.70;99.90
16635;DHT22;8431;52.458;9.998;2022-10-16T14:36:23;17.70;99.90
16635;DHT22;8431;52.458;9.998;2022-10-16T14:39:00;17.60;99.90
16635;DHT22;8431;52.458;9.998;2022-10-16T14:41:29;17.70;99.90
16635;DHT22;8431;52.458;9.998;2022-10-16T14:44:01;17.70;99.90
16635;DHT22;8431;52.458;9.998;2022-10-16T14:46:32;17.80;99.90
16635;DHT22;8431;52.458;9.998;2022-10-16T14:49:03;17.80;99.90
16635;DHT22;8431;52.458;9.998;2022-10-16T14:51:30;17.80;99.90
16635;DHT22;8431;52.458;9.998;2022-10-16T14:53:57;17.80;99.90
16635;DHT22;8431;52.458;9.998;2022-10-16T14:56:28;17.80;99.90
16635;DHT22;8431;52.458;9.998;2022-10-16T14:58:58;17.80;99.90
16635;DHT22;8431;52.458;9.998;2022-10-16T15:01:25;17.80;99.90
16635;DHT22;8431;52.458;9.998;2022-10-16T15:03:52;17.80;99.90
16635;DHT22;8431;52.458;9.998;2022-10-16T15:06:21;17.80;99.90
16635;DHT22;8431;52.458;9.998;2022-10-16T15:08:48;17.70;99.90
16635;DHT22;8431;52.458;9.998;2022-10-16T15:11:17;17.60;99.90
16635;DHT22;8431;52.458;9.998;2022-10-16T15:13:44;17.60;99.90
16635;DHT22;8431;52.458;9.998;2022-10-16T15:16:14;17.50;99.90
16635;DHT22;8431;52.458;9.998;2022-10-16T15:18:41;17.40;99.90
16635;DHT22;8431;52.458;9.998;2022-10-16T15:21:13;17.30;99.90
16635;DHT22;8431;52.458;9.998;2022-10-16T15:23:48;17.10;99.90
16635;DHT22;8431;52.458;9.998;2022-10-16T15:26:16;16.90;99.90
16635;DHT22;8431;52.458;9.998;2022-10-16T15:28:43;16.80;99.90
16635;DHT22;8431;52.458;9.998;2022-10-16T15:31:10;16.60;99.90
16635;DHT22;8431;52.458;9.998;2022-10-16T15:33:38;16.50;99.90
16635;DHT22;8431;52.458;9.998;2022-10-16T15:36:05;16.60;99.90
16635;DHT22;8431;52.458;9.998;2022-10-16T15:38:33;16.60;99.90
16635;DHT22;8431;52.458;9.998;2022-10-16T15:41:00;16.50;99.90
16635;DHT22;8431;52.458;9.998;2022-10-16T15:43:27;16.60;99.90
16635;DHT22;8431;52.458;9.998;2022-10-16T15:46:00;16.60;99.90
16635;DHT22;8431;52.458;9.998;2022-10-16T15:48:28;16.50;99.90
16635;DHT22;8431;52.458;9.998;2022-10-16T15:50:56;16.30;99.90
16635;DHT22;8431;52.458;9.998;2022-10-16T15:53:23;16.20;99.90
16635;DHT22;8431;52.458;9.998;2022-10-16T15:55:50;16.00;99.90
16635;DHT22;8431;52.458;9.998;2022-10-16T15:58:17;15.90;99.90
16635;DHT22;8431;52.458;9.998;2022-10-16T16:00:44;15.70;99.90
16635;DHT22;8431;52.458;9.998;2022-10-16T16:03:11;15.60;99.90
16635;DHT22;8431;52.458;9.998;2022-10-16T16:05:39;15.40;99.90
16635;DHT22;8431;52.458;9.998;2022-10-16T16:08:07;15.30;99.90
16635;DHT22;8431;52.458;9.998;2022-10-16T16:10:34;15.10;99.90
16635;DHT22;8431;52.458;9.998;2022-10-16T16:13:01;15.00;99.90